sensor_id;sensor_type;location;lat;lon;timestamp;P1;durP1;ratioP1;P2;durP2;ratioP2
35225;SDS011;21813;49.686;21.766;2023-04-08T00:01:37;53.13;;;29.50;;
35225;SDS011;21813;49.686;21.766;2023-04-08T00:04:03;55.30;;;31.25;;
35225;SDS011;21813;49.686;21.766;2023-04-08T00:06:29;49.65;;;29.38;;
35225;SDS011;21813;49.686;21.766;2023-04-08T00:08:55;46.55;;;27.63;;
35225;SDS011;21813;49.686;21.766;2023-04-08T00:11:21;46.50;;;27.17;;
35225;SDS011;21813;49.686;21.766;2023-04-08T00:13:47;52.28;;;28.40;;
35225;SDS011;21813;49.686;21.766;2023-04-08T00:16:13;41.33;;;25.52;;
35225;SDS011;21813;49.686;21.766;2023-04-08T00:18:38;47.38;;;24.92;;
35225;SDS011;21813;49.686;21.766;2023-04-08T00:21:04;44.58;;;24.90;;
35225;SDS011;21813;49.686;21.766;2023-04-08T00:23:30;42.95;;;24.70;;
35225;SDS011;21813;49.686;21.766;2023-04-08T00:25:56;37.20;;;23.83;;
35225;SDS011;21813;49.686;21.766;2023-04-08T00:28:21;42.70;;;25.05;;
35225;SDS011;21813;49.686;21.766;2023-04-08T00:30:47;43.67;;;25.83;;
35225;SDS011;21813;49.686;21.766;2023-04-08T00:33:13;45.00;;;26.02;;
35225;SDS011;21813;49.686;21.766;2023-04-08T00:35:39;43.95;;;25.33;;
35225;SDS011;21813;49.686;21.766;2023-04-08T00:38:04;43.95;;;25.92;;
35225;SDS011;21813;49.686;21.766;2023-04-08T00:40:33;43.97;;;25.25;;
35225;SDS011;21813;49.686;21.766;2023-04-08T00:42:59;41.85;;;26.05;;
35225;SDS011;21813;49.686;21.766;2023-04-08T00:45:24;36.40;;;23.40;;
35225;SDS011;21813;49.686;21.766;2023-04-08T00:47:50;37.65;;;23.35;;
35225;SDS011;21813;49.686;21.766;2023-04-08T00:50:17;37.55;;;23.65;;
35225;SDS011;21813;49.686;21.766;2023-04-08T00:52:43;37.63;;;23.85;;
35225;SDS011;21813;49.686;21.766;2023-04-08T00:55:09;36.75;;;22.77;;
35225;SDS011;21813;49.686;21.766;2023-04-08T00:57:35;36.60;;;22.65;;
35225;SDS011;21813;49.686;21.766;2023-04-08T01:00:02;37.53;;;21.52;;
35225;SDS011;21813;49.686;21.766;2023-04-08T01:08:30;31.83;;;20.65;;
35225;SDS011;21813;49.686;21.766;2023-04-08T01:11:01;33.35;;;19.98;;
35225;SDS011;21813;49.686;21.766;2023-04-08T01:13:30;31.02;;;20.55;;
35225;SDS011;21813;49.686;21.766;2023-04-08T01:16:03;34.58;;;20.95;;
35225;SDS011;21813;49.686;21.766;2023-04-08T01:18:30;34.67;;;20.05;;
35225;SDS011;21813;49.686;21.766;2023-04-08T01:21:00;33.60;;;21.80;;
35225;SDS011;21813;49.686;21.766;2023-04-08T01:23:30;32.97;;;20.90;;
35225;SDS011;21813;49.686;21.766;2023-04-08T01:26:04;35.13;;;21.02;;
35225;SDS011;21813;49.686;21.766;2023-04-08T01:28:30;32.85;;;19.92;;
35225;SDS011;21813;49.686;21.766;2023-04-08T01:31:03;32.92;;;20.10;;
35225;SDS011;21813;49.686;21.766;2023-04-08T01:33:30;31.75;;;19.80;;
35225;SDS011;21813;49.686;21.766;2023-04-08T01:35:57;31.40;;;20.58;;
35225;SDS011;21813;49.686;21.766;2023-04-08T01:38:25;30.83;;;19.10;;
35225;SDS011;21813;49.686;21.766;2023-04-08T01:40:53;31.85;;;19.70;;
35225;SDS011;21813;49.686;21.766;2023-04-08T01:43:20;32.03;;;20.05;;
35225;SDS011;21813;49.686;21.766;2023-04-08T01:45:47;30.67;;;19.30;;
35225;SDS011;21813;49.686;21.766;2023-04-08T01:48:14;29.20;;;19.20;;
35225;SDS011;21813;49.686;21.766;2023-04-08T01:50:42;40.33;;;24.55;;
35225;SDS011;21813;49.686;21.766;2023-04-08T01:53:09;35.33;;;21.63;;
35225;SDS011;21813;49.686;21.766;2023-04-08T01:55:37;32.63;;;22.42;;
35225;SDS011;21813;49.686;21.766;2023-04-08T01:58:05;31.98;;;21.20;;
35225;SDS011;21813;49.686;21.766;2023-04-08T02:03:29;29.83;;;18.88;;
35225;SDS011;21813;49.686;21.766;2023-04-08T02:05:57;65.32;;;43.15;;
35225;SDS011;21813;49.686;21.766;2023-04-08T02:08:23;55.15;;;35.17;;
35225;SDS011;21813;49.686;21.766;2023-04-08T02:10:50;62.15;;;42.60;;
35225;SDS011;21813;49.686;21.766;2023-04-08T02:13:16;48.13;;;29.23;;
35225;SDS011;21813;49.686;21.766;2023-04-08T02:15:43;35.05;;;22.90;;
35225;SDS011;21813;49.686;21.766;2023-04-08T02:18:16;34.78;;;21.23;;
35225;SDS011;21813;49.686;21.766;2023-04-08T02:21:08;61.33;;;35.95;;
35225;SDS011;21813;49.686;21.766;2023-04-08T02:23:39;51.15;;;32.45;;
35225;SDS011;21813;49.686;21.766;2023-04-08T02:26:07;72.93;;;35.03;;
35225;SDS011;21813;49.686;21.766;2023-04-08T02:28:40;59.05;;;33.25;;
35225;SDS011;21813;49.686;21.766;2023-04-08T02:31:09;47.40;;;26.13;;
35225;SDS011;21813;49.686;21.766;2023-04-08T02:33:38;92.28;;;37.78;;
35225;SDS011;21813;49.686;21.766;2023-04-08T02:36:04;47.70;;;26.60;;
35225;SDS011;21813;49.686;21.766;2023-04-08T02:38:33;60.88;;;29.42;;
35225;SDS011;21813;49.686;21.766;2023-04-08T02:40:59;66.13;;;32.65;;
35225;SDS011;21813;49.686;21.766;2023-04-08T02:43:25;67.45;;;30.38;;
35225;SDS011;21813;49.686;21.766;2023-04-08T02:45:56;64.20;;;28.27;;
35225;SDS011;21813;49.686;21.766;2023-04-08T02:48:22;63.50;;;27.70;;
35225;SDS011;21813;49.686;21.766;2023-04-08T02:50:48;95.18;;;43.20;;
35225;SDS011;21813;49.686;21.766;2023-04-08T02:53:14;82.57;;;41.40;;
35225;SDS011;21813;49.686;21.766;2023-04-08T02:55:40;54.08;;;30.95;;
35225;SDS011;21813;49.686;21.766;2023-04-08T02:58:06;55.85;;;29.30;;
35225;SDS011;21813;49.686;21.766;2023-04-08T03:00:32;74.78;;;34.00;;
35225;SDS011;21813;49.686;21.766;2023-04-08T03:03:00;75.53;;;32.60;;
35225;SDS011;21813;49.686;21.766;2023-04-08T03:05:25;74.70;;;30.63;;
35225;SDS011;21813;49.686;21.766;2023-04-08T03:07:52;58.63;;;24.83;;
35225;SDS011;21813;49.686;21.766;2023-04-08T03:10:18;46.30;;;24.52;;
35225;SDS011;21813;49.686;21.766;2023-04-08T03:12:44;59.47;;;34.83;;
35225;SDS011;21813;49.686;21.766;2023-04-08T03:15:09;44.45;;;25.35;;
35225;SDS011;21813;49.686;21.766;2023-04-08T03:17:35;37.08;;;21.33;;
35225;SDS011;21813;49.686;21.766;2023-04-08T03:20:01;34.95;;;22.73;;
35225;SDS011;21813;49.686;21.766;2023-04-08T03:22:33;46.35;;;25.17;;
35225;SDS011;21813;49.686;21.766;2023-04-08T03:24:58;40.60;;;23.13;;
35225;SDS011;21813;49.686;21.766;2023-04-08T03:27:26;55.45;;;26.88;;
35225;SDS011;21813;49.686;21.766;2023-04-08T03:29:52;40.80;;;22.45;;
35225;SDS011;21813;49.686;21.766;2023-04-08T03:32:19;42.80;;;23.38;;
35225;SDS011;21813;49.686;21.766;2023-04-08T03:34:44;41.80;;;24.88;;
35225;SDS011;21813;49.686;21.766;2023-04-08T03:37:11;43.13;;;25.08;;
35225;SDS011;21813;49.686;21.766;2023-04-08T03:39:37;42.88;;;23.90;;
35225;SDS011;21813;49.686;21.766;2023-04-08T03:42:04;61.00;;;29.00;;
35225;SDS011;21813;49.686;21.766;2023-04-08T03:44:30;53.25;;;26.40;;
35225;SDS011;21813;49.686;21.766;2023-04-08T03:46:56;42.58;;;23.90;;
35225;SDS011;21813;49.686;21.766;2023-04-08T03:49:22;40.13;;;23.42;;
35225;SDS011;21813;49.686;21.766;2023-04-08T03:51:48;37.72;;;22.63;;
35225;SDS011;21813;49.686;21.766;2023-04-08T03:54:14;37.85;;;22.15;;
35225;SDS011;21813;49.686;21.766;2023-04-08T03:56:40;39.33;;;22.98;;
35225;SDS011;21813;49.686;21.766;2023-04-08T03:59:06;37.85;;;22.42;;
35225;SDS011;21813;49.686;21.766;2023-04-08T04:01:32;42.65;;;24.35;;
35225;SDS011;21813;49.686;21.766;2023-04-08T04:03:58;39.70;;;23.60;;
35225;SDS011;21813;49.686;21.766;2023-04-08T04:06:25;39.42;;;23.17;;
35225;SDS011;21813;49.686;21.766;2023-04-08T04:08:54;39.17;;;23.23;;
35225;SDS011;21813;49.686;21.766;2023-04-08T04:11:23;41.70;;;24.25;;
35225;SDS011;21813;49.686;21.766;2023-04-08T04:13:48;38.88;;;22.80;;
35225;SDS011;21813;49.686;21.766;2023-04-08T04:16:15;46.22;;;25.60;;
35225;SDS011;21813;49.686;21.766;2023-04-08T04:18:40;41.05;;;23.88;;
35225;SDS011;21813;49.686;21.766;2023-04-08T04:21:07;41.38;;;24.27;;
35225;SDS011;21813;49.686;21.766;2023-04-08T04:23:32;40.50;;;23.08;;
35225;SDS011;21813;49.686;21.766;2023-04-08T04:25:59;41.65;;;24.30;;
35225;SDS011;21813;49.686;21.766;2023-04-08T04:28:24;45.30;;;25.75;;
35225;SDS011;21813;49.686;21.766;2023-04-08T04:30:51;42.17;;;24.75;;
35225;SDS011;21813;49.686;21.766;2023-04-08T04:33:17;47.47;;;28.17;;
35225;SDS011;21813;49.686;21.766;2023-04-08T04:35:42;52.17;;;27.92;;
35225;SDS011;21813;49.686;21.766;2023-04-08T04:38:08;48.30;;;26.73;;
35225;SDS011;21813;49.686;21.766;2023-04-08T04:40:39;53.08;;;26.92;;
35225;SDS011;21813;49.686;21.766;2023-04-08T04:43:05;44.95;;;25.90;;
35225;SDS011;21813;49.686;21.766;2023-04-08T04:45:31;40.35;;;23.85;;
35225;SDS011;21813;49.686;21.766;2023-04-08T04:47:57;43.83;;;25.52;;
35225;SDS011;21813;49.686;21.766;2023-04-08T04:50:23;45.35;;;26.13;;
35225;SDS011;21813;49.686;21.766;2023-04-08T04:52:48;43.88;;;23.63;;
35225;SDS011;21813;49.686;21.766;2023-04-08T04:55:14;47.15;;;26.13;;
35225;SDS011;21813;49.686;21.766;2023-04-08T04:57:40;51.63;;;25.80;;
35225;SDS011;21813;49.686;21.766;2023-04-08T05:00:06;47.38;;;25.42;;
35225;SDS011;21813;49.686;21.766;2023-04-08T05:02:32;43.72;;;24.23;;
35225;SDS011;21813;49.686;21.766;2023-04-08T05:04:58;47.33;;;26.60;;
35225;SDS011;21813;49.686;21.766;2023-04-08T05:07:24;53.28;;;27.35;;
35225;SDS011;21813;49.686;21.766;2023-04-08T05:16:18;45.60;;;24.40;;
35225;SDS011;21813;49.686;21.766;2023-04-08T05:18:47;45.65;;;25.08;;
35225;SDS011;21813;49.686;21.766;2023-04-08T05:21:37;46.38;;;25.70;;
35225;SDS011;21813;49.686;21.766;2023-04-08T05:24:02;42.75;;;25.42;;
35225;SDS011;21813;49.686;21.766;2023-04-08T05:26:29;44.65;;;25.05;;
35225;SDS011;21813;49.686;21.766;2023-04-08T05:28:55;50.03;;;26.95;;
35225;SDS011;21813;49.686;21.766;2023-04-08T05:31:22;59.50;;;31.50;;
35225;SDS011;21813;49.686;21.766;2023-04-08T05:33:47;50.78;;;27.98;;
35225;SDS011;21813;49.686;21.766;2023-04-08T05:36:14;53.15;;;27.88;;
35225;SDS011;21813;49.686;21.766;2023-04-08T05:38:40;49.05;;;26.40;;
35225;SDS011;21813;49.686;21.766;2023-04-08T05:41:17;48.08;;;26.05;;
35225;SDS011;21813;49.686;21.766;2023-04-08T05:43:43;42.50;;;25.65;;
35225;SDS011;21813;49.686;21.766;2023-04-08T05:46:17;37.65;;;24.13;;
35225;SDS011;21813;49.686;21.766;2023-04-08T05:48:48;40.75;;;23.55;;
35225;SDS011;21813;49.686;21.766;2023-04-08T05:51:18;44.90;;;23.95;;
35225;SDS011;21813;49.686;21.766;2023-04-08T05:53:44;38.25;;;24.20;;
35225;SDS011;21813;49.686;21.766;2023-04-08T05:56:12;38.15;;;22.92;;
35225;SDS011;21813;49.686;21.766;2023-04-08T05:58:48;43.83;;;25.38;;
35225;SDS011;21813;49.686;21.766;2023-04-08T06:01:15;39.35;;;24.60;;
35225;SDS011;21813;49.686;21.766;2023-04-08T06:03:43;44.75;;;25.58;;
35225;SDS011;21813;49.686;21.766;2023-04-08T06:06:10;46.10;;;25.00;;
35225;SDS011;21813;49.686;21.766;2023-04-08T06:08:36;39.55;;;23.38;;
35225;SDS011;21813;49.686;21.766;2023-04-08T06:11:03;34.53;;;21.77;;
35225;SDS011;21813;49.686;21.766;2023-04-08T06:13:47;40.38;;;21.92;;
35225;SDS011;21813;49.686;21.766;2023-04-08T06:16:15;40.63;;;23.48;;
35225;SDS011;21813;49.686;21.766;2023-04-08T06:18:41;37.22;;;22.42;;
35225;SDS011;21813;49.686;21.766;2023-04-08T06:21:17;39.33;;;23.33;;
35225;SDS011;21813;49.686;21.766;2023-04-08T06:23:43;35.13;;;21.48;;
35225;SDS011;21813;49.686;21.766;2023-04-08T06:26:09;32.15;;;20.92;;
35225;SDS011;21813;49.686;21.766;2023-04-08T06:28:37;35.42;;;22.30;;
35225;SDS011;21813;49.686;21.766;2023-04-08T06:31:12;34.85;;;22.13;;
35225;SDS011;21813;49.686;21.766;2023-04-08T06:33:37;34.10;;;21.63;;
35225;SDS011;21813;49.686;21.766;2023-04-08T06:36:05;35.08;;;22.35;;
35225;SDS011;21813;49.686;21.766;2023-04-08T06:38:31;34.72;;;22.38;;
35225;SDS011;21813;49.686;21.766;2023-04-08T06:41:03;35.35;;;22.55;;
35225;SDS011;21813;49.686;21.766;2023-04-08T06:43:30;32.03;;;20.02;;
35225;SDS011;21813;49.686;21.766;2023-04-08T06:46:00;34.97;;;21.63;;
35225;SDS011;21813;49.686;21.766;2023-04-08T06:48:26;36.30;;;21.73;;
35225;SDS011;21813;49.686;21.766;2023-04-08T06:50:55;34.97;;;22.02;;
35225;SDS011;21813;49.686;21.766;2023-04-08T06:53:22;35.03;;;20.83;;
35225;SDS011;21813;49.686;21.766;2023-04-08T06:55:49;45.00;;;25.42;;
35225;SDS011;21813;49.686;21.766;2023-04-08T06:58:15;44.20;;;26.00;;
35225;SDS011;21813;49.686;21.766;2023-04-08T07:00:41;29.00;;;18.23;;
35225;SDS011;21813;49.686;21.766;2023-04-08T07:03:06;32.55;;;18.73;;
35225;SDS011;21813;49.686;21.766;2023-04-08T07:08:08;34.38;;;21.13;;
35225;SDS011;21813;49.686;21.766;2023-04-08T07:10:34;40.03;;;25.30;;
35225;SDS011;21813;49.686;21.766;2023-04-08T07:12:59;36.55;;;21.70;;
35225;SDS011;21813;49.686;21.766;2023-04-08T07:15:26;41.47;;;24.98;;
35225;SDS011;21813;49.686;21.766;2023-04-08T07:17:51;40.10;;;25.08;;
35225;SDS011;21813;49.686;21.766;2023-04-08T07:20:17;36.05;;;22.85;;
35225;SDS011;21813;49.686;21.766;2023-04-08T07:25:33;27.52;;;17.67;;
35225;SDS011;21813;49.686;21.766;2023-04-08T07:28:00;28.52;;;19.55;;
35225;SDS011;21813;49.686;21.766;2023-04-08T07:30:26;31.13;;;20.85;;
35225;SDS011;21813;49.686;21.766;2023-04-08T07:32:52;30.67;;;20.50;;
35225;SDS011;21813;49.686;21.766;2023-04-08T07:35:21;32.95;;;20.65;;
35225;SDS011;21813;49.686;21.766;2023-04-08T07:37:49;33.10;;;19.88;;
35225;SDS011;21813;49.686;21.766;2023-04-08T07:40:24;32.00;;;21.60;;
35225;SDS011;21813;49.686;21.766;2023-04-08T07:42:50;32.97;;;22.08;;
35225;SDS011;21813;49.686;21.766;2023-04-08T07:45:16;27.98;;;18.27;;
35225;SDS011;21813;49.686;21.766;2023-04-08T07:47:42;30.52;;;19.40;;
35225;SDS011;21813;49.686;21.766;2023-04-08T07:50:08;26.95;;;18.23;;
35225;SDS011;21813;49.686;21.766;2023-04-08T07:52:34;32.50;;;20.88;;
35225;SDS011;21813;49.686;21.766;2023-04-08T07:55:00;32.20;;;20.50;;
35225;SDS011;21813;49.686;21.766;2023-04-08T07:57:26;31.35;;;19.20;;
35225;SDS011;21813;49.686;21.766;2023-04-08T07:59:52;37.85;;;23.17;;
35225;SDS011;21813;49.686;21.766;2023-04-08T08:02:18;28.98;;;19.85;;
35225;SDS011;21813;49.686;21.766;2023-04-08T08:04:43;32.58;;;20.73;;
35225;SDS011;21813;49.686;21.766;2023-04-08T08:07:09;35.40;;;22.15;;
35225;SDS011;21813;49.686;21.766;2023-04-08T08:09:35;30.17;;;20.50;;
35225;SDS011;21813;49.686;21.766;2023-04-08T08:12:01;32.33;;;20.67;;
35225;SDS011;21813;49.686;21.766;2023-04-08T08:14:26;28.75;;;19.23;;
35225;SDS011;21813;49.686;21.766;2023-04-08T08:16:53;27.42;;;18.10;;
35225;SDS011;21813;49.686;21.766;2023-04-08T08:19:19;26.17;;;17.13;;
35225;SDS011;21813;49.686;21.766;2023-04-08T08:21:45;28.13;;;19.77;;
35225;SDS011;21813;49.686;21.766;2023-04-08T08:24:11;27.17;;;18.17;;
35225;SDS011;21813;49.686;21.766;2023-04-08T08:26:37;28.58;;;19.30;;
35225;SDS011;21813;49.686;21.766;2023-04-08T08:29:03;33.58;;;20.52;;
35225;SDS011;21813;49.686;21.766;2023-04-08T08:31:29;27.88;;;19.52;;
35225;SDS011;21813;49.686;21.766;2023-04-08T08:33:55;27.20;;;18.90;;
35225;SDS011;21813;49.686;21.766;2023-04-08T08:36:21;31.67;;;20.98;;
35225;SDS011;21813;49.686;21.766;2023-04-08T08:39:06;30.58;;;19.85;;
35225;SDS011;21813;49.686;21.766;2023-04-08T08:41:34;30.52;;;20.70;;
35225;SDS011;21813;49.686;21.766;2023-04-08T08:44:04;29.48;;;20.13;;
35225;SDS011;21813;49.686;21.766;2023-04-08T08:46:30;31.95;;;18.83;;
35225;SDS011;21813;49.686;21.766;2023-04-08T08:48:55;31.00;;;19.88;;
35225;SDS011;21813;49.686;21.766;2023-04-08T08:51:25;31.40;;;20.00;;
35225;SDS011;21813;49.686;21.766;2023-04-08T08:53:52;29.33;;;20.20;;
35225;SDS011;21813;49.686;21.766;2023-04-08T08:56:24;28.67;;;19.80;;
35225;SDS011;21813;49.686;21.766;2023-04-08T08:59:10;29.85;;;19.50;;
35225;SDS011;21813;49.686;21.766;2023-04-08T09:01:36;28.92;;;19.48;;
35225;SDS011;21813;49.686;21.766;2023-04-08T09:04:11;37.28;;;22.30;;
35225;SDS011;21813;49.686;21.766;2023-04-08T09:06:49;33.05;;;21.30;;
35225;SDS011;21813;49.686;21.766;2023-04-08T09:09:57;32.72;;;22.02;;
35225;SDS011;21813;49.686;21.766;2023-04-08T09:12:57;32.35;;;20.70;;
35225;SDS011;21813;49.686;21.766;2023-04-08T09:15:50;33.17;;;22.05;;
35225;SDS011;21813;49.686;21.766;2023-04-08T09:19:09;35.13;;;20.67;;
35225;SDS011;21813;49.686;21.766;2023-04-08T09:22:10;33.92;;;20.23;;
35225;SDS011;21813;49.686;21.766;2023-04-08T09:24:36;31.02;;;20.90;;
35225;SDS011;21813;49.686;21.766;2023-04-08T09:27:03;29.95;;;20.13;;
35225;SDS011;21813;49.686;21.766;2023-04-08T09:29:41;31.10;;;20.80;;
35225;SDS011;21813;49.686;21.766;2023-04-08T09:32:07;34.28;;;21.17;;
35225;SDS011;21813;49.686;21.766;2023-04-08T09:34:46;34.35;;;23.13;;
35225;SDS011;21813;49.686;21.766;2023-04-08T09:37:13;33.65;;;22.60;;
35225;SDS011;21813;49.686;21.766;2023-04-08T09:39:41;34.40;;;21.25;;
35225;SDS011;21813;49.686;21.766;2023-04-08T09:42:27;32.72;;;20.40;;
35225;SDS011;21813;49.686;21.766;2023-04-08T09:44:57;34.23;;;21.77;;
35225;SDS011;21813;49.686;21.766;2023-04-08T09:47:25;37.65;;;22.85;;
35225;SDS011;21813;49.686;21.766;2023-04-08T09:50:00;36.45;;;21.98;;
35225;SDS011;21813;49.686;21.766;2023-04-08T09:52:31;36.70;;;22.00;;
35225;SDS011;21813;49.686;21.766;2023-04-08T09:55:02;41.63;;;23.20;;
35225;SDS011;21813;49.686;21.766;2023-04-08T10:00:24;32.22;;;20.83;;
35225;SDS011;21813;49.686;21.766;2023-04-08T10:03:26;34.90;;;20.77;;
35225;SDS011;21813;49.686;21.766;2023-04-08T10:06:13;31.23;;;21.30;;
35225;SDS011;21813;49.686;21.766;2023-04-08T10:08:42;36.53;;;23.95;;
35225;SDS011;21813;49.686;21.766;2023-04-08T10:11:18;35.78;;;23.35;;
35225;SDS011;21813;49.686;21.766;2023-04-08T10:13:44;38.58;;;22.52;;
35225;SDS011;21813;49.686;21.766;2023-04-08T10:16:20;33.38;;;22.02;;
35225;SDS011;21813;49.686;21.766;2023-04-08T10:18:48;35.15;;;21.13;;
35225;SDS011;21813;49.686;21.766;2023-04-08T10:26:34;35.08;;;21.85;;
35225;SDS011;21813;49.686;21.766;2023-04-08T10:31:46;40.55;;;24.55;;
35225;SDS011;21813;49.686;21.766;2023-04-08T10:34:16;36.37;;;23.83;;
35225;SDS011;21813;49.686;21.766;2023-04-08T10:36:46;37.13;;;24.83;;
35225;SDS011;21813;49.686;21.766;2023-04-08T10:39:15;36.10;;;21.70;;
35225;SDS011;21813;49.686;21.766;2023-04-08T10:41:49;34.28;;;20.40;;
35225;SDS011;21813;49.686;21.766;2023-04-08T10:44:17;36.25;;;21.65;;
35225;SDS011;21813;49.686;21.766;2023-04-08T10:46:44;31.88;;;20.05;;
35225;SDS011;21813;49.686;21.766;2023-04-08T10:49:12;35.63;;;22.33;;
35225;SDS011;21813;49.686;21.766;2023-04-08T10:51:42;36.55;;;19.80;;
35225;SDS011;21813;49.686;21.766;2023-04-08T10:54:14;41.15;;;22.20;;
35225;SDS011;21813;49.686;21.766;2023-04-08T10:59:54;40.40;;;22.67;;
35225;SDS011;21813;49.686;21.766;2023-04-08T11:02:31;46.97;;;23.95;;
35225;SDS011;21813;49.686;21.766;2023-04-08T11:05:30;45.28;;;24.65;;
35225;SDS011;21813;49.686;21.766;2023-04-08T11:07:57;53.00;;;27.40;;
35225;SDS011;21813;49.686;21.766;2023-04-08T11:10:24;49.03;;;27.17;;
35225;SDS011;21813;49.686;21.766;2023-04-08T11:12:52;53.95;;;27.95;;
35225;SDS011;21813;49.686;21.766;2023-04-08T11:15:19;45.45;;;24.80;;
35225;SDS011;21813;49.686;21.766;2023-04-08T11:17:46;55.65;;;28.80;;
35225;SDS011;21813;49.686;21.766;2023-04-08T11:20:13;52.03;;;25.75;;
35225;SDS011;21813;49.686;21.766;2023-04-08T11:22:39;49.08;;;26.80;;
35225;SDS011;21813;49.686;21.766;2023-04-08T11:25:09;47.85;;;25.65;;
35225;SDS011;21813;49.686;21.766;2023-04-08T11:27:36;50.22;;;24.88;;
35225;SDS011;21813;49.686;21.766;2023-04-08T11:30:03;57.20;;;27.60;;
35225;SDS011;21813;49.686;21.766;2023-04-08T11:32:31;55.65;;;27.98;;
35225;SDS011;21813;49.686;21.766;2023-04-08T11:35:00;61.70;;;31.58;;
35225;SDS011;21813;49.686;21.766;2023-04-08T11:37:47;45.63;;;25.88;;
35225;SDS011;21813;49.686;21.766;2023-04-08T11:40:18;48.35;;;24.65;;
35225;SDS011;21813;49.686;21.766;2023-04-08T11:42:46;48.60;;;28.20;;
35225;SDS011;21813;49.686;21.766;2023-04-08T11:45:12;47.88;;;24.38;;
35225;SDS011;21813;49.686;21.766;2023-04-08T11:47:40;40.80;;;23.45;;
35225;SDS011;21813;49.686;21.766;2023-04-08T11:50:07;41.92;;;22.27;;
35225;SDS011;21813;49.686;21.766;2023-04-08T11:52:49;33.45;;;20.27;;
35225;SDS011;21813;49.686;21.766;2023-04-08T11:55:22;39.72;;;21.20;;
35225;SDS011;21813;49.686;21.766;2023-04-08T11:57:50;39.28;;;21.10;;
35225;SDS011;21813;49.686;21.766;2023-04-08T12:00:17;34.13;;;20.67;;
35225;SDS011;21813;49.686;21.766;2023-04-08T12:02:44;31.73;;;20.25;;
35225;SDS011;21813;49.686;21.766;2023-04-08T12:05:11;34.47;;;20.17;;
35225;SDS011;21813;49.686;21.766;2023-04-08T12:07:37;33.63;;;19.65;;
35225;SDS011;21813;49.686;21.766;2023-04-08T12:10:03;36.15;;;20.77;;
35225;SDS011;21813;49.686;21.766;2023-04-08T12:12:30;32.33;;;18.92;;
35225;SDS011;21813;49.686;21.766;2023-04-08T12:14:56;35.47;;;20.83;;
35225;SDS011;21813;49.686;21.766;2023-04-08T12:17:22;34.13;;;17.15;;
35225;SDS011;21813;49.686;21.766;2023-04-08T12:19:47;30.83;;;17.13;;
35225;SDS011;21813;49.686;21.766;2023-04-08T12:22:13;29.95;;;17.92;;
35225;SDS011;21813;49.686;21.766;2023-04-08T12:24:40;31.92;;;18.75;;
35225;SDS011;21813;49.686;21.766;2023-04-08T12:27:06;28.23;;;17.17;;
35225;SDS011;21813;49.686;21.766;2023-04-08T12:29:32;29.40;;;16.98;;
35225;SDS011;21813;49.686;21.766;2023-04-08T12:31:58;29.55;;;17.63;;
35225;SDS011;21813;49.686;21.766;2023-04-08T12:34:23;28.63;;;16.38;;
35225;SDS011;21813;49.686;21.766;2023-04-08T12:42:00;24.08;;;15.55;;
35225;SDS011;21813;49.686;21.766;2023-04-08T12:44:26;25.25;;;16.30;;
35225;SDS011;21813;49.686;21.766;2023-04-08T12:46:51;23.38;;;16.35;;
35225;SDS011;21813;49.686;21.766;2023-04-08T12:49:17;29.73;;;18.05;;
35225;SDS011;21813;49.686;21.766;2023-04-08T12:52:00;25.95;;;16.02;;
35225;SDS011;21813;49.686;21.766;2023-04-08T12:54:30;24.73;;;15.73;;
35225;SDS011;21813;49.686;21.766;2023-04-08T12:56:56;28.33;;;14.98;;
35225;SDS011;21813;49.686;21.766;2023-04-08T12:59:23;24.48;;;17.75;;
35225;SDS011;21813;49.686;21.766;2023-04-08T13:01:48;33.33;;;16.00;;
35225;SDS011;21813;49.686;21.766;2023-04-08T13:04:15;25.73;;;15.38;;
35225;SDS011;21813;49.686;21.766;2023-04-08T13:09:50;26.77;;;16.35;;
35225;SDS011;21813;49.686;21.766;2023-04-08T13:12:16;27.67;;;17.55;;
35225;SDS011;21813;49.686;21.766;2023-04-08T13:14:41;28.00;;;14.38;;
35225;SDS011;21813;49.686;21.766;2023-04-08T13:17:08;24.80;;;15.60;;
35225;SDS011;21813;49.686;21.766;2023-04-08T13:19:34;30.63;;;17.00;;
35225;SDS011;21813;49.686;21.766;2023-04-08T13:22:00;27.92;;;16.55;;
35225;SDS011;21813;49.686;21.766;2023-04-08T13:24:47;24.55;;;15.15;;
35225;SDS011;21813;49.686;21.766;2023-04-08T13:27:15;26.20;;;15.60;;
35225;SDS011;21813;49.686;21.766;2023-04-08T13:36:39;24.85;;;15.02;;
35225;SDS011;21813;49.686;21.766;2023-04-08T13:39:15;22.95;;;14.30;;
35225;SDS011;21813;49.686;21.766;2023-04-08T13:56:28;24.67;;;15.00;;
35225;SDS011;21813;49.686;21.766;2023-04-08T14:02:48;24.05;;;14.85;;
35225;SDS011;21813;49.686;21.766;2023-04-08T14:05:15;27.70;;;16.20;;
35225;SDS011;21813;49.686;21.766;2023-04-08T14:07:41;25.00;;;16.52;;
35225;SDS011;21813;49.686;21.766;2023-04-08T14:10:07;27.08;;;16.05;;
35225;SDS011;21813;49.686;21.766;2023-04-08T14:12:33;23.15;;;15.07;;
35225;SDS011;21813;49.686;21.766;2023-04-08T14:14:59;29.05;;;17.88;;
35225;SDS011;21813;49.686;21.766;2023-04-08T14:17:24;27.45;;;17.48;;
35225;SDS011;21813;49.686;21.766;2023-04-08T14:19:50;27.90;;;18.90;;
35225;SDS011;21813;49.686;21.766;2023-04-08T14:22:16;28.15;;;16.38;;
35225;SDS011;21813;49.686;21.766;2023-04-08T14:28:23;28.27;;;17.10;;
35225;SDS011;21813;49.686;21.766;2023-04-08T14:30:50;25.52;;;17.17;;
35225;SDS011;21813;49.686;21.766;2023-04-08T14:33:15;28.40;;;17.75;;
35225;SDS011;21813;49.686;21.766;2023-04-08T14:35:42;26.90;;;19.27;;
35225;SDS011;21813;49.686;21.766;2023-04-08T14:38:08;25.20;;;17.25;;
35225;SDS011;21813;49.686;21.766;2023-04-08T14:40:34;25.73;;;16.20;;
35225;SDS011;21813;49.686;21.766;2023-04-08T14:43:00;22.25;;;15.35;;
35225;SDS011;21813;49.686;21.766;2023-04-08T14:45:27;24.48;;;16.63;;
35225;SDS011;21813;49.686;21.766;2023-04-08T14:47:55;25.00;;;16.73;;
35225;SDS011;21813;49.686;21.766;2023-04-08T14:50:22;25.20;;;16.25;;
35225;SDS011;21813;49.686;21.766;2023-04-08T14:56:20;24.05;;;15.73;;
35225;SDS011;21813;49.686;21.766;2023-04-08T15:04:37;21.40;;;15.68;;
35225;SDS011;21813;49.686;21.766;2023-04-08T15:07:06;25.67;;;15.82;;
35225;SDS011;21813;49.686;21.766;2023-04-08T15:09:31;26.00;;;16.63;;
35225;SDS011;21813;49.686;21.766;2023-04-08T15:15:01;23.52;;;15.40;;
35225;SDS011;21813;49.686;21.766;2023-04-08T15:17:33;24.45;;;15.90;;
35225;SDS011;21813;49.686;21.766;2023-04-08T15:19:59;24.15;;;15.65;;
35225;SDS011;21813;49.686;21.766;2023-04-08T15:22:30;22.33;;;15.40;;
35225;SDS011;21813;49.686;21.766;2023-04-08T15:25:00;24.23;;;15.38;;
35225;SDS011;21813;49.686;21.766;2023-04-08T15:27:35;25.02;;;16.48;;
35225;SDS011;21813;49.686;21.766;2023-04-08T15:32:37;24.55;;;15.73;;
35225;SDS011;21813;49.686;21.766;2023-04-08T15:35:06;27.15;;;16.95;;
35225;SDS011;21813;49.686;21.766;2023-04-08T15:37:32;26.80;;;16.45;;
35225;SDS011;21813;49.686;21.766;2023-04-08T15:39:58;24.67;;;16.15;;
35225;SDS011;21813;49.686;21.766;2023-04-08T15:46:03;26.45;;;16.27;;
35225;SDS011;21813;49.686;21.766;2023-04-08T15:52:18;25.35;;;17.08;;